createdAt,value
2023-04-25T00:00:16.214Z,5.50
2023-04-25T00:05:19.199Z,5.46
2023-04-25T00:10:22.198Z,5.34
2023-04-25T00:15:26.316Z,5.21
2023-04-25T00:20:28.896Z,5.06
2023-04-25T00:25:31.462Z,4.86
2023-04-25T00:30:35.470Z,4.67
2023-04-25T00:35:38.365Z,4.37
2023-04-25T00:40:40.908Z,4.19
2023-04-25T00:45:45.600Z,4.04
2023-04-25T00:50:54.236Z,3.81
2023-04-25T00:55:57.264Z,3.81
2023-04-25T01:01:01.890Z,3.81
2023-04-25T01:06:04.740Z,3.87
2023-04-25T01:11:07.667Z,4.03
2023-04-25T01:16:11.712Z,4.10
2023-04-25T01:21:15.927Z,4.18
2023-04-25T01:26:19.157Z,4.23
2023-04-25T01:31:22.002Z,4.29
2023-04-25T01:36:26.159Z,4.35
2023-04-25T01:41:29.277Z,4.40
2023-04-25T01:46:32.732Z,4.44
2023-04-25T01:51:36.966Z,4.47
2023-04-25T01:56:40.178Z,4.47
2023-04-25T02:01:42.873Z,4.52
2023-04-25T02:06:46.895Z,4.52
2023-04-25T02:11:49.700Z,4.46
2023-04-25T02:16:53.003Z,4.35
2023-04-25T02:21:58.064Z,4.29
2023-04-25T02:27:00.718Z,4.30
2023-04-25T02:32:03.603Z,4.38
2023-04-25T02:37:07.509Z,4.47
2023-04-25T02:42:10.075Z,4.58
2023-04-25T02:47:12.661Z,4.68
2023-04-25T02:52:16.652Z,4.64
2023-04-25T02:57:19.197Z,4.59
2023-04-25T03:02:21.859Z,4.33
2023-04-25T03:07:27.893Z,3.99
2023-04-25T03:12:30.630Z,3.75
2023-04-25T03:17:33.373Z,3.61
2023-04-25T03:22:38.384Z,3.71
2023-04-25T03:27:40.947Z,3.76
2023-04-25T03:32:43.538Z,3.82
2023-04-25T03:37:47.507Z,3.85
2023-04-25T03:42:50.073Z,3.85
2023-04-25T03:47:52.620Z,3.87
2023-04-25T03:52:56.573Z,3.92
2023-04-25T03:57:59.874Z,3.96
2023-04-25T04:03:02.615Z,4.05
2023-04-25T04:08:06.902Z,4.11
2023-04-25T04:13:09.486Z,4.14
2023-04-25T04:18:12.142Z,4.13
2023-04-25T04:23:16.173Z,4.14
2023-04-25T04:28:18.799Z,4.14
2023-04-25T04:33:21.528Z,4.16
2023-04-25T04:38:26.396Z,4.19
2023-04-25T04:43:29.540Z,4.22
2023-04-25T04:48:35.197Z,4.26
2023-04-25T04:53:39.155Z,4.27
2023-04-25T04:58:41.724Z,4.27
2023-04-25T05:03:44.443Z,4.34
2023-04-25T05:08:48.470Z,4.38
2023-04-25T05:13:53.426Z,4.41
2023-04-25T05:18:56.359Z,4.52
2023-04-25T05:24:00.691Z,4.61
2023-04-25T05:29:03.316Z,4.74
2023-04-25T05:34:05.916Z,4.88
2023-04-25T05:39:09.948Z,4.94
2023-04-25T05:44:12.581Z,5.02
2023-04-25T05:49:16.406Z,5.04
2023-04-25T05:54:21.443Z,5.10
2023-04-25T05:59:24.011Z,5.24
2023-04-25T06:04:27.530Z,5.38
2023-04-25T06:09:31.594Z,5.42
2023-04-25T06:14:34.209Z,5.55
2023-04-25T06:19:37.696Z,5.71
2023-04-25T06:24:41.490Z,5.79
2023-04-25T06:29:44.054Z,6.00
2023-04-25T06:34:46.642Z,6.25
2023-04-25T06:39:50.688Z,6.42
2023-04-25T06:44:53.257Z,6.79
2023-04-25T06:49:55.839Z,9.63
2023-04-25T06:55:00.388Z,11.23
2023-04-25T07:00:06.280Z,12.38
2023-04-25T07:05:09.449Z,12.84
2023-04-25T07:10:13.332Z,13.26
2023-04-25T07:15:16.020Z,14.57
2023-04-25T07:20:18.615Z,12.88
2023-04-25T07:25:22.549Z,11.41
2023-04-25T07:30:25.403Z,10.53
2023-04-25T07:35:28.146Z,10.69
2023-04-25T07:40:32.258Z,10.31
2023-04-25T07:45:34.869Z,10.62
2023-04-25T07:50:37.522Z,10.05
2023-04-25T07:55:41.783Z,10.22
2023-04-25T08:00:44.369Z,10.65
2023-04-25T08:05:47.795Z,9.60
2023-04-25T08:10:51.871Z,9.20
2023-04-25T08:15:54.467Z,9.24
2023-04-25T08:20:57.167Z,8.92
2023-04-25T08:26:01.159Z,8.67
2023-04-25T08:31:03.988Z,9.77
2023-04-25T08:36:06.897Z,9.76
2023-04-25T08:41:13.830Z,9.58
2023-04-25T08:46:20.264Z,9.17
2023-04-25T08:51:25.538Z,9.25
2023-04-25T08:56:31.131Z,9.30
2023-04-25T09:01:34.017Z,9.80
2023-04-25T09:06:37.217Z,10.57
2023-04-25T09:11:41.658Z,10.69
2023-04-25T09:17:09.157Z,10.58
2023-04-25T09:22:11.802Z,11.55
2023-04-25T09:27:21.388Z,13.82
2023-04-25T09:32:25.671Z,14.62
2023-04-25T09:37:30.523Z,16.15
2023-04-25T09:42:35.732Z,15.18
2023-04-25T09:47:39.795Z,12.17
2023-04-25T09:52:42.660Z,10.58
2023-04-25T09:57:52.381Z,8.59
2023-04-25T10:02:56.531Z,7.31
2023-04-25T10:08:00.183Z,7.46
2023-04-25T10:13:04.217Z,8.09
2023-04-25T10:18:08.428Z,8.34
2023-04-25T10:23:17.973Z,8.01
2023-04-25T10:28:22.337Z,7.87
2023-04-25T10:33:34.231Z,8.65
2023-04-25T10:38:37.882Z,9.82
2023-04-25T10:43:43.118Z,9.95
2023-04-25T10:48:49.206Z,10.70
2023-04-25T10:54:02.704Z,12.24
2023-04-25T10:59:09.502Z,12.73
2023-04-25T11:04:23.444Z,13.28
2023-04-25T11:09:27.432Z,13.99
2023-04-25T11:14:31.367Z,14.34
2023-04-25T11:19:33.982Z,14.70
2023-04-25T11:24:37.941Z,13.99
2023-04-25T11:29:43.041Z,12.69
2023-04-25T11:34:47.107Z,12.32
2023-04-25T11:39:49.864Z,13.78
2023-04-25T11:44:56.626Z,13.95
2023-04-25T11:50:00.624Z,13.84
2023-04-25T11:55:03.307Z,14.02
2023-04-25T12:00:15.848Z,13.59
2023-04-25T12:05:32.068Z,13.38
2023-04-25T12:10:39.437Z,11.04
2023-04-25T12:15:43.735Z,10.29
2023-04-25T12:20:46.496Z,10.62
2023-04-25T12:25:49.022Z,11.55
2023-04-25T12:31:01.653Z,11.46
2023-04-25T12:36:09.742Z,12.01
2023-04-25T12:41:12.494Z,11.16
2023-04-25T12:46:16.502Z,12.09
2023-04-25T12:51:19.179Z,13.20
2023-04-25T12:56:23.617Z,13.66
2023-04-25T13:01:29.459Z,13.00
2023-04-25T13:06:32.380Z,12.28
2023-04-25T13:11:34.979Z,12.19
2023-04-25T13:16:39.088Z,11.92
2023-04-25T13:21:42.739Z,12.42
2023-04-25T13:26:45.812Z,12.12
2023-04-25T13:31:49.788Z,12.53
2023-04-25T13:36:52.396Z,13.39
2023-04-25T13:41:55.041Z,12.39
2023-04-25T13:46:59.099Z,10.52
2023-04-25T13:52:02.737Z,10.51
2023-04-25T13:57:06.255Z,11.59
2023-04-25T14:02:10.246Z,12.10
2023-04-25T14:07:12.945Z,11.99
2023-04-25T14:12:15.657Z,12.04
2023-04-25T14:17:19.873Z,11.51
2023-04-25T14:22:22.435Z,12.39
2023-04-25T14:27:26.185Z,12.21
2023-04-25T14:32:33.088Z,12.10
2023-04-25T14:37:35.738Z,12.49
2023-04-25T14:42:38.558Z,13.03
2023-04-25T14:47:42.865Z,13.47
2023-04-25T14:52:46.904Z,12.35
2023-04-25T14:57:49.463Z,11.92
2023-04-25T15:02:53.721Z,11.25
2023-04-25T15:07:56.692Z,11.31
2023-04-25T15:12:59.374Z,11.61
2023-04-25T15:18:03.372Z,11.93
2023-04-25T15:23:06.586Z,12.49
2023-04-25T15:28:09.557Z,12.98
2023-04-25T15:33:14.345Z,13.21
2023-04-25T15:38:16.973Z,13.65
2023-04-25T15:43:19.515Z,11.84
2023-04-25T15:48:23.506Z,10.69
2023-04-25T15:53:26.153Z,10.99
2023-04-25T15:58:28.760Z,11.73
2023-04-25T16:03:36.361Z,11.91
2023-04-25T16:08:39.347Z,12.15
2023-04-25T16:13:41.958Z,11.33
2023-04-25T16:18:45.846Z,11.47
2023-04-25T16:23:48.563Z,10.47
2023-04-25T16:28:51.225Z,10.61
2023-04-25T16:33:55.168Z,10.65
2023-04-25T16:38:57.735Z,9.71
2023-04-25T16:44:00.317Z,9.12
2023-04-25T16:49:04.352Z,9.82
2023-04-25T16:54:06.957Z,9.21
2023-04-25T16:59:09.574Z,9.63
2023-04-25T17:04:13.574Z,9.19
2023-04-25T17:09:16.271Z,8.54
2023-04-25T17:14:18.871Z,7.66
2023-04-25T17:19:22.846Z,6.93
2023-04-25T17:24:25.500Z,6.53
2023-04-25T17:29:28.136Z,6.41
2023-04-25T17:34:32.063Z,6.55
2023-04-25T17:39:34.666Z,6.58
2023-04-25T17:44:37.306Z,6.64
2023-04-25T17:49:41.396Z,6.74
2023-04-25T17:54:43.989Z,6.80
2023-04-25T17:59:46.610Z,6.78
2023-04-25T18:04:50.642Z,6.81
2023-04-25T18:09:53.307Z,6.75
2023-04-25T18:14:55.935Z,6.65
2023-04-25T18:20:01.744Z,6.56
2023-04-25T18:25:05.718Z,6.47
2023-04-25T18:30:10.623Z,6.11
2023-04-25T18:35:14.612Z,5.78
2023-04-25T18:40:17.304Z,5.45
2023-04-25T18:45:20.094Z,5.23
2023-04-25T18:50:26.326Z,5.01
2023-04-25T18:55:29.901Z,4.81
2023-04-25T19:00:32.606Z,4.63
2023-04-25T19:05:36.569Z,4.41
2023-04-25T19:10:39.129Z,4.21
2023-04-25T19:15:42.678Z,3.97
2023-04-25T19:20:46.613Z,3.92
2023-04-25T19:25:49.245Z,3.76
2023-04-25T19:30:52.298Z,3.72
2023-04-25T19:35:56.225Z,3.51
2023-04-25T19:40:58.860Z,3.38
2023-04-25T19:46:01.405Z,3.48
2023-04-25T19:51:05.884Z,3.60
2023-04-25T19:56:09.700Z,3.74
2023-04-25T20:01:12.340Z,3.81
2023-04-25T20:06:16.339Z,3.94
2023-04-25T20:11:18.997Z,4.10
2023-04-25T20:16:21.997Z,4.23
2023-04-25T20:21:27.404Z,4.34
2023-04-25T20:26:33.784Z,4.36
2023-04-25T20:31:37.127Z,4.34
2023-04-25T20:36:41.078Z,4.23
2023-04-25T20:41:44.757Z,4.00
2023-04-25T20:46:48.012Z,3.82
2023-04-25T20:51:52.451Z,4.00
2023-04-25T20:56:55.839Z,4.20
2023-04-25T21:01:59.549Z,4.17
2023-04-25T21:07:03.586Z,3.86
2023-04-25T21:12:06.940Z,3.63
2023-04-25T21:17:09.602Z,3.37
2023-04-25T21:22:13.659Z,3.08
2023-04-25T21:27:18.966Z,2.85
2023-04-25T21:32:22.212Z,2.65
2023-04-25T21:37:26.169Z,2.53
2023-04-25T21:42:28.818Z,2.50
2023-04-25T21:47:31.739Z,2.40
2023-04-25T21:52:36.897Z,2.23
2023-04-25T21:57:39.505Z,2.09
2023-04-25T22:02:42.211Z,2.11
2023-04-25T22:07:46.210Z,2.25
2023-04-25T22:12:50.790Z,2.28
2023-04-25T22:17:55.260Z,2.43
2023-04-25T22:22:59.578Z,2.58
2023-04-25T22:28:02.110Z,2.69
2023-04-25T22:33:04.833Z,2.81
2023-04-25T22:38:08.778Z,2.90
2023-04-25T22:43:12.262Z,2.87
2023-04-25T22:48:15.898Z,2.90
2023-04-25T22:53:19.668Z,2.86
2023-04-25T22:58:22.264Z,2.71
2023-04-25T23:03:25.005Z,2.37
2023-04-25T23:08:29.103Z,2.17
2023-04-25T23:13:34.058Z,1.89
2023-04-25T23:18:37.302Z,1.71
2023-04-25T23:23:41.214Z,1.52
2023-04-25T23:28:45.113Z,1.32
2023-04-25T23:33:47.667Z,1.17
2023-04-25T23:38:52.471Z,1.11
2023-04-25T23:43:56.162Z,1.06
2023-04-25T23:48:59.009Z,0.93
2023-04-25T23:54:05.217Z,0.81
2023-04-25T23:59:08.950Z,0.85
